West Hills, California
Current Conditions -  °F | °C
As of 11:51 AM on Monday 24 Nov 2014 (Local Time) from KVNY Reporting Station
Clear Clear  
Wind Chill: 24°   Ceiling: Unl
Heat Index: 24°   Visibility: 10mi
Dew Point: -12°   Wind: 18mph
Humidity: 8%   Direction: 350°N
Pressure: 30.22"   Gusts: NA
Location:  34.2°N, 118.64°W
Report Text: KVNY 241951Z 35016KT 10SM CLR 24/M12 A3022 RMK AO2 PK WND 01026/1855 SLP224 T02441117
Loading
Personal Weather Stations






























Interactive Weather Map New forecast layout! Learn more

10-Day Weather Forecast

Advertisements
Track Severe Weather on mobile